Aviation Digital Data Service (ADDS)

Output produced by METARs form (1946 UTC 15 October 2018)
found at http://www.aviationweather.gov/metar/data/
 
METAR text: RCTP 151930Z 20003KT 9999 FEW020 SCT040 BKN070 23/22 Q1012 NOSIG RMK A2991
Conditions at: RCTP (TAIPEI TAOYUAN , TW) observed 1930 UTC 15 October 2018
Temperature: 23.0°C (73°F)
Dewpoint: 22.0°C (72°F) [RH = 94%]
Pressure (altimeter): 29.88 inches Hg (1012.0 mb)
Winds: from the SSW (200 degrees) at 3 MPH (3 knots; 1.5 m/s)
Visibility: 6 or more miles (10+ km)
Ceiling: 7000 feet AGL
Clouds: few clouds at 2000 feet AGL
scattered clouds at 4000 feet AGL
broken clouds at 7000 feet AGL
Weather: no significant weather observed at this time

METAR text: RCTP 151900Z 16003KT 9999 FEW020 SCT040 BKN070 24/22 Q1012 NOSIG RMK A2991
Conditions at: RCTP (TAIPEI TAOYUAN , TW) observed 1900 UTC 15 October 2018
Temperature: 24.0°C (75°F)
Dewpoint: 22.0°C (72°F) [RH = 89%]
Pressure (altimeter): 29.88 inches Hg (1012.0 mb)
Winds: from the SSE (160 degrees) at 3 MPH (3 knots; 1.5 m/s)
Visibility: 6 or more miles (10+ km)
Ceiling: 7000 feet AGL
Clouds: few clouds at 2000 feet AGL
scattered clouds at 4000 feet AGL
broken clouds at 7000 feet AGL
Weather: no significant weather observed at this time

METAR text: RCTP 151830Z 04002KT 9999 FEW020 SCT040 BKN070 23/22 Q1012 NOSIG RMK A2991
Conditions at: RCTP (TAIPEI TAOYUAN , TW) observed 1830 UTC 15 October 2018
Temperature: 23.0°C (73°F)
Dewpoint: 22.0°C (72°F) [RH = 94%]
Pressure (altimeter): 29.88 inches Hg (1012.0 mb)
Winds: from the NE (40 degrees) at 2 MPH (2 knots; 1.0 m/s)
Visibility: 6 or more miles (10+ km)
Ceiling: 7000 feet AGL
Clouds: few clouds at 2000 feet AGL
scattered clouds at 4000 feet AGL
broken clouds at 7000 feet AGL
Weather: no significant weather observed at this time

METAR text: RCTP 151800Z 03002KT 9999 FEW020 SCT070 BKN140 24/22 Q1012 NOSIG RMK A2991
Conditions at: RCTP (TAIPEI TAOYUAN , TW) observed 1800 UTC 15 October 2018
Temperature: 24.0°C (75°F)
Dewpoint: 22.0°C (72°F) [RH = 89%]
Pressure (altimeter): 29.88 inches Hg (1012.0 mb)
Winds: from the NNE (30 degrees) at 2 MPH (2 knots; 1.0 m/s)
Visibility: 6 or more miles (10+ km)
Ceiling: 14000 feet AGL
Clouds: few clouds at 2000 feet AGL
scattered clouds at 7000 feet AGL
broken clouds at 14000 feet AGL
Weather: no significant weather observed at this time

METAR text: RCTP 151730Z 02003KT 9999 FEW020 SCT070 BKN140 24/22 Q1012 NOSIG RMK A2991
Conditions at: RCTP (TAIPEI TAOYUAN , TW) observed 1730 UTC 15 October 2018
Temperature: 24.0°C (75°F)
Dewpoint: 22.0°C (72°F) [RH = 89%]
Pressure (altimeter): 29.88 inches Hg (1012.0 mb)
Winds: from the NNE (20 degrees) at 3 MPH (3 knots; 1.5 m/s)
Visibility: 6 or more miles (10+ km)
Ceiling: 14000 feet AGL
Clouds: few clouds at 2000 feet AGL
scattered clouds at 7000 feet AGL
broken clouds at 14000 feet AGL
Weather: no significant weather observed at this time

METAR text: RCTP 151700Z 02004KT 9999 FEW020 BKN070 24/22 Q1013 NOSIG RMK A2992
Conditions at: RCTP (TAIPEI TAOYUAN , TW) observed 1700 UTC 15 October 2018
Temperature: 24.0°C (75°F)
Dewpoint: 22.0°C (72°F) [RH = 89%]
Pressure (altimeter): 29.91 inches Hg (1013.0 mb)
Winds: from the NNE (20 degrees) at 5 MPH (4 knots; 2.1 m/s)
Visibility: 6 or more miles (10+ km)
Ceiling: 7000 feet AGL
Clouds: few clouds at 2000 feet AGL
broken clouds at 7000 feet AGL
Weather: no significant weather observed at this time

METAR text: RCTP 151630Z 35004KT 9999 FEW020 BKN070 24/22 Q1013 NOSIG RMK A2993
Conditions at: RCTP (TAIPEI TAOYUAN , TW) observed 1630 UTC 15 October 2018
Temperature: 24.0°C (75°F)
Dewpoint: 22.0°C (72°F) [RH = 89%]
Pressure (altimeter): 29.91 inches Hg (1013.0 mb)
Winds: from the N (350 degrees) at 5 MPH (4 knots; 2.1 m/s)
Visibility: 6 or more miles (10+ km)
Ceiling: 7000 feet AGL
Clouds: few clouds at 2000 feet AGL
broken clouds at 7000 feet AGL
Weather: no significant weather observed at this time

METAR text: RCTP 151600Z 35003KT 320V020 9999 FEW020 BKN070 BKN120 24/22 Q1013 NOSIG RMK A2993
Conditions at: RCTP (TAIPEI TAOYUAN , TW) observed 1600 UTC 15 October 2018
Temperature: 24.0°C (75°F)
Dewpoint: 22.0°C (72°F) [RH = 89%]
Pressure (altimeter): 29.91 inches Hg (1013.0 mb)
Winds: from the N (350 degrees) at 3 MPH (3 knots; 1.5 m/s)
Visibility: 6 or more miles (10+ km)
Ceiling: 7000 feet AGL
Clouds: few clouds at 2000 feet AGL
broken clouds at 7000 feet AGL
broken clouds at 12000 feet AGL
Weather: no significant weather observed at this time

METAR text: RCTP 151530Z 05007KT 9999 FEW020 BKN070 BKN100 24/22 Q1013 NOSIG RMK A2993
Conditions at: RCTP (TAIPEI TAOYUAN , TW) observed 1530 UTC 15 October 2018
Temperature: 24.0°C (75°F)
Dewpoint: 22.0°C (72°F) [RH = 89%]
Pressure (altimeter): 29.91 inches Hg (1013.0 mb)
Winds: from the NE (50 degrees) at 8 MPH (7 knots; 3.6 m/s)
Visibility: 6 or more miles (10+ km)
Ceiling: 7000 feet AGL
Clouds: few clouds at 2000 feet AGL
broken clouds at 7000 feet AGL
broken clouds at 10000 feet AGL
Weather: no significant weather observed at this time

METAR text: RCTP 151500Z 04007KT 9999 FEW020 BKN070 BKN100 24/22 Q1013 NOSIG RMK A2993
Conditions at: RCTP (TAIPEI TAOYUAN , TW) observed 1500 UTC 15 October 2018
Temperature: 24.0°C (75°F)
Dewpoint: 22.0°C (72°F) [RH = 89%]
Pressure (altimeter): 29.91 inches Hg (1013.0 mb)
Winds: from the NE (40 degrees) at 8 MPH (7 knots; 3.6 m/s)
Visibility: 6 or more miles (10+ km)
Ceiling: 7000 feet AGL
Clouds: few clouds at 2000 feet AGL
broken clouds at 7000 feet AGL
broken clouds at 10000 feet AGL
Weather: no significant weather observed at this time

METAR text: RCTP 151430Z 06009KT 9999 FEW020 SCT070 BKN160 24/22 Q1013 NOSIG RMK A2993
Conditions at: RCTP (TAIPEI TAOYUAN , TW) observed 1430 UTC 15 October 2018
Temperature: 24.0°C (75°F)
Dewpoint: 22.0°C (72°F) [RH = 89%]
Pressure (altimeter): 29.91 inches Hg (1013.0 mb)
Winds: from the ENE (60 degrees) at 10 MPH (9 knots; 4.6 m/s)
Visibility: 6 or more miles (10+ km)
Ceiling: 16000 feet AGL
Clouds: few clouds at 2000 feet AGL
scattered clouds at 7000 feet AGL
broken clouds at 16000 feet AGL
Weather: no significant weather observed at this time

METAR text: RCTP 151400Z 05009KT 9999 FEW020 SCT070 BKN160 24/22 Q1013 NOSIG RMK A2994
Conditions at: RCTP (TAIPEI TAOYUAN , TW) observed 1400 UTC 15 October 2018
Temperature: 24.0°C (75°F)
Dewpoint: 22.0°C (72°F) [RH = 89%]
Pressure (altimeter): 29.91 inches Hg (1013.0 mb)
Winds: from the NE (50 degrees) at 10 MPH (9 knots; 4.6 m/s)
Visibility: 6 or more miles (10+ km)
Ceiling: 16000 feet AGL
Clouds: few clouds at 2000 feet AGL
scattered clouds at 7000 feet AGL
broken clouds at 16000 feet AGL
Weather: no significant weather observed at this time

METAR text: RCTP 151330Z 05009KT 9999 FEW020 SCT070 BKN160 24/22 Q1013 NOSIG RMK A2994
Conditions at: RCTP (TAIPEI TAOYUAN , TW) observed 1330 UTC 15 October 2018
Temperature: 24.0°C (75°F)
Dewpoint: 22.0°C (72°F) [RH = 89%]
Pressure (altimeter): 29.91 inches Hg (1013.0 mb)
Winds: from the NE (50 degrees) at 10 MPH (9 knots; 4.6 m/s)
Visibility: 6 or more miles (10+ km)
Ceiling: 16000 feet AGL
Clouds: few clouds at 2000 feet AGL
scattered clouds at 7000 feet AGL
broken clouds at 16000 feet AGL
Weather: no significant weather observed at this time

METAR text: RCTP 151300Z 06009KT 9999 SCT010 SCT020 BKN160 24/22 Q1013 NOSIG RMK A2994
Conditions at: RCTP (TAIPEI TAOYUAN , TW) observed 1300 UTC 15 October 2018
Temperature: 24.0°C (75°F)
Dewpoint: 22.0°C (72°F) [RH = 89%]
Pressure (altimeter): 29.91 inches Hg (1013.0 mb)
Winds: from the ENE (60 degrees) at 10 MPH (9 knots; 4.6 m/s)
Visibility: 6 or more miles (10+ km)
Ceiling: 16000 feet AGL
Clouds: scattered clouds at 1000 feet AGL
scattered clouds at 2000 feet AGL
broken clouds at 16000 feet AGL
Weather: no significant weather observed at this time

METAR text: RCTP 151230Z 04009KT 9999 SCT010 SCT020 BKN160 24/22 Q1013 NOSIG RMK A2994
Conditions at: RCTP (TAIPEI TAOYUAN , TW) observed 1230 UTC 15 October 2018
Temperature: 24.0°C (75°F)
Dewpoint: 22.0°C (72°F) [RH = 89%]
Pressure (altimeter): 29.91 inches Hg (1013.0 mb)
Winds: from the NE (40 degrees) at 10 MPH (9 knots; 4.6 m/s)
Visibility: 6 or more miles (10+ km)
Ceiling: 16000 feet AGL
Clouds: scattered clouds at 1000 feet AGL
scattered clouds at 2000 feet AGL
broken clouds at 16000 feet AGL
Weather: no significant weather observed at this time

METAR text: RCTP 151200Z 05008KT 9999 SCT010 SCT020 BKN160 24/22 Q1013 NOSIG RMK A2993
Conditions at: RCTP (TAIPEI TAOYUAN , TW) observed 1200 UTC 15 October 2018
Temperature: 24.0°C (75°F)
Dewpoint: 22.0°C (72°F) [RH = 89%]
Pressure (altimeter): 29.91 inches Hg (1013.0 mb)
Winds: from the NE (50 degrees) at 9 MPH (8 knots; 4.1 m/s)
Visibility: 6 or more miles (10+ km)
Ceiling: 16000 feet AGL
Clouds: scattered clouds at 1000 feet AGL
scattered clouds at 2000 feet AGL
broken clouds at 16000 feet AGL
Weather: no significant weather observed at this time

METAR text: RCTP 151130Z 05008KT 9999 SCT010 SCT020 BKN160 24/22 Q1013 NOSIG RMK A2992
Conditions at: RCTP (TAIPEI TAOYUAN , TW) observed 1130 UTC 15 October 2018
Temperature: 24.0°C (75°F)
Dewpoint: 22.0°C (72°F) [RH = 89%]
Pressure (altimeter): 29.91 inches Hg (1013.0 mb)
Winds: from the NE (50 degrees) at 9 MPH (8 knots; 4.1 m/s)
Visibility: 6 or more miles (10+ km)
Ceiling: 16000 feet AGL
Clouds: scattered clouds at 1000 feet AGL
scattered clouds at 2000 feet AGL
broken clouds at 16000 feet AGL
Weather: no significant weather observed at this time

METAR text: RCTP 151100Z 05009KT 9999 SCT010 SCT023 BKN170 24/22 Q1013 NOSIG RMK A2992
Conditions at: RCTP (TAIPEI TAOYUAN , TW) observed 1100 UTC 15 October 2018
Temperature: 24.0°C (75°F)
Dewpoint: 22.0°C (72°F) [RH = 89%]
Pressure (altimeter): 29.91 inches Hg (1013.0 mb)
Winds: from the NE (50 degrees) at 10 MPH (9 knots; 4.6 m/s)
Visibility: 6 or more miles (10+ km)
Ceiling: 17000 feet AGL
Clouds: scattered clouds at 1000 feet AGL
scattered clouds at 2300 feet AGL
broken clouds at 17000 feet AGL
Weather: no significant weather observed at this time

METAR text: RCTP 151030Z 05013KT 9999 SCT010 SCT023 BKN170 24/22 Q1012 NOSIG RMK A2991
Conditions at: RCTP (TAIPEI TAOYUAN , TW) observed 1030 UTC 15 October 2018
Temperature: 24.0°C (75°F)
Dewpoint: 22.0°C (72°F) [RH = 89%]
Pressure (altimeter): 29.88 inches Hg (1012.0 mb)
Winds: from the NE (50 degrees) at 15 MPH (13 knots; 6.7 m/s)
Visibility: 6 or more miles (10+ km)
Ceiling: 17000 feet AGL
Clouds: scattered clouds at 1000 feet AGL
scattered clouds at 2300 feet AGL
broken clouds at 17000 feet AGL
Weather: no significant weather observed at this time

METAR text: RCTP 151000Z 04014KT 9999 -RA SCT010 BKN023 24/22 Q1013 NOSIG RMK A2992
Conditions at: RCTP (TAIPEI TAOYUAN , TW) observed 1000 UTC 15 October 2018
Temperature: 24.0°C (75°F)
Dewpoint: 22.0°C (72°F) [RH = 89%]
Pressure (altimeter): 29.91 inches Hg (1013.0 mb)
Winds: from the NE (40 degrees) at 16 MPH (14 knots; 7.2 m/s)
Visibility: 6 or more miles (10+ km)
Ceiling: 2300 feet AGL
Clouds: scattered clouds at 1000 feet AGL
broken clouds at 2300 feet AGL
Weather: -RA  (light rain)

METAR text: RCTP 150934Z 04014KT 9999 -RA SCT010 BKN023 24/23 Q1013 NOSIG RMK A2992
Conditions at: RCTP (TAIPEI TAOYUAN , TW) observed 0934 UTC 15 October 2018
Temperature: 24.0°C (75°F)
Dewpoint: 23.0°C (73°F) [RH = 94%]
Pressure (altimeter): 29.91 inches Hg (1013.0 mb)
Winds: from the NE (40 degrees) at 16 MPH (14 knots; 7.2 m/s)
Visibility: 6 or more miles (10+ km)
Ceiling: 2300 feet AGL
Clouds: scattered clouds at 1000 feet AGL
broken clouds at 2300 feet AGL
Weather: -RA  (light rain)

METAR text: RCTP 150930Z 04012KT 9999 SCT010 BKN023 24/23 Q1013 NOSIG RMK A2992
Conditions at: RCTP (TAIPEI TAOYUAN , TW) observed 0930 UTC 15 October 2018
Temperature: 24.0°C (75°F)
Dewpoint: 23.0°C (73°F) [RH = 94%]
Pressure (altimeter): 29.91 inches Hg (1013.0 mb)
Winds: from the NE (40 degrees) at 14 MPH (12 knots; 6.2 m/s)
Visibility: 6 or more miles (10+ km)
Ceiling: 2300 feet AGL
Clouds: scattered clouds at 1000 feet AGL
broken clouds at 2300 feet AGL
Weather: no significant weather observed at this time

METAR text: RCTP 150900Z 03015KT 9999 FEW010 BKN025 24/22 Q1013 NOSIG RMK A2993
Conditions at: RCTP (TAIPEI TAOYUAN , TW) observed 0900 UTC 15 October 2018
Temperature: 24.0°C (75°F)
Dewpoint: 22.0°C (72°F) [RH = 89%]
Pressure (altimeter): 29.91 inches Hg (1013.0 mb)
Winds: from the NNE (30 degrees) at 17 MPH (15 knots; 7.7 m/s)
Visibility: 6 or more miles (10+ km)
Ceiling: 2500 feet AGL
Clouds: few clouds at 1000 feet AGL
broken clouds at 2500 feet AGL
Weather: no significant weather observed at this time

METAR text: RCTP 150830Z 03016KT 9999 SCT010 BKN025 24/23 Q1013 NOSIG RMK A2992
Conditions at: RCTP (TAIPEI TAOYUAN , TW) observed 0830 UTC 15 October 2018
Temperature: 24.0°C (75°F)
Dewpoint: 23.0°C (73°F) [RH = 94%]
Pressure (altimeter): 29.91 inches Hg (1013.0 mb)
Winds: from the NNE (30 degrees) at 18 MPH (16 knots; 8.2 m/s)
Visibility: 6 or more miles (10+ km)
Ceiling: 2500 feet AGL
Clouds: scattered clouds at 1000 feet AGL
broken clouds at 2500 feet AGL
Weather: no significant weather observed at this time

METAR text: RCTP 150800Z 03015KT 9999 SCT010 BKN030 25/23 Q1013 NOSIG RMK A2992
Conditions at: RCTP (TAIPEI TAOYUAN , TW) observed 0800 UTC 15 October 2018
Temperature: 25.0°C (77°F)
Dewpoint: 23.0°C (73°F) [RH = 89%]
Pressure (altimeter): 29.91 inches Hg (1013.0 mb)
Winds: from the NNE (30 degrees) at 17 MPH (15 knots; 7.7 m/s)
Visibility: 6 or more miles (10+ km)
Ceiling: 3000 feet AGL
Clouds: scattered clouds at 1000 feet AGL
broken clouds at 3000 feet AGL
Weather: no significant weather observed at this time

METAR text: RCTP 150730Z 03016KT 9999 SCT010 SCT030 BKN160 26/23 Q1012 NOSIG RMK A2991
Conditions at: RCTP (TAIPEI TAOYUAN , TW) observed 0730 UTC 15 October 2018
Temperature: 26.0°C (79°F)
Dewpoint: 23.0°C (73°F) [RH = 84%]
Pressure (altimeter): 29.88 inches Hg (1012.0 mb)
Winds: from the NNE (30 degrees) at 18 MPH (16 knots; 8.2 m/s)
Visibility: 6 or more miles (10+ km)
Ceiling: 16000 feet AGL
Clouds: scattered clouds at 1000 feet AGL
scattered clouds at 3000 feet AGL
broken clouds at 16000 feet AGL
Weather: no significant weather observed at this time

METAR text: RCTP 150700Z 03015KT 9999 SCT010 SCT030 BKN160 25/23 Q1012 NOSIG RMK A2990
Conditions at: RCTP (TAIPEI TAOYUAN , TW) observed 0700 UTC 15 October 2018
Temperature: 25.0°C (77°F)
Dewpoint: 23.0°C (73°F) [RH = 89%]
Pressure (altimeter): 29.88 inches Hg (1012.0 mb)
Winds: from the NNE (30 degrees) at 17 MPH (15 knots; 7.7 m/s)
Visibility: 6 or more miles (10+ km)
Ceiling: 16000 feet AGL
Clouds: scattered clouds at 1000 feet AGL
scattered clouds at 3000 feet AGL
broken clouds at 16000 feet AGL
Weather: no significant weather observed at this time

METAR text: RCTP 150630Z 04013KT 9999 SCT010 SCT030 BKN160 26/23 Q1012 NOSIG RMK A2991
Conditions at: RCTP (TAIPEI TAOYUAN , TW) observed 0630 UTC 15 October 2018
Temperature: 26.0°C (79°F)
Dewpoint: 23.0°C (73°F) [RH = 84%]
Pressure (altimeter): 29.88 inches Hg (1012.0 mb)
Winds: from the NE (40 degrees) at 15 MPH (13 knots; 6.7 m/s)
Visibility: 6 or more miles (10+ km)
Ceiling: 16000 feet AGL
Clouds: scattered clouds at 1000 feet AGL
scattered clouds at 3000 feet AGL
broken clouds at 16000 feet AGL
Weather: no significant weather observed at this time

METAR text: RCTP 150600Z 03014KT 9999 FEW006 SCT010 BKN040 26/23 Q1012 NOSIG RMK A2991
Conditions at: RCTP (TAIPEI TAOYUAN , TW) observed 0600 UTC 15 October 2018
Temperature: 26.0°C (79°F)
Dewpoint: 23.0°C (73°F) [RH = 84%]
Pressure (altimeter): 29.88 inches Hg (1012.0 mb)
Winds: from the NNE (30 degrees) at 16 MPH (14 knots; 7.2 m/s)
Visibility: 6 or more miles (10+ km)
Ceiling: 4000 feet AGL
Clouds: few clouds at 600 feet AGL
scattered clouds at 1000 feet AGL
broken clouds at 4000 feet AGL
Weather: no significant weather observed at this time

METAR text: RCTP 150530Z 03016KT 9999 FEW006 SCT010 BKN035 26/24 Q1013 NOSIG RMK A2993
Conditions at: RCTP (TAIPEI TAOYUAN , TW) observed 0530 UTC 15 October 2018
Temperature: 26.0°C (79°F)
Dewpoint: 24.0°C (75°F) [RH = 89%]
Pressure (altimeter): 29.91 inches Hg (1013.0 mb)
Winds: from the NNE (30 degrees) at 18 MPH (16 knots; 8.2 m/s)
Visibility: 6 or more miles (10+ km)
Ceiling: 3500 feet AGL
Clouds: few clouds at 600 feet AGL
scattered clouds at 1000 feet AGL
broken clouds at 3500 feet AGL
Weather: no significant weather observed at this time

METAR text: RCTP 150500Z 03016KT 9999 FEW006 SCT010 BKN030 26/24 Q1013 NOSIG RMK A2993
Conditions at: RCTP (TAIPEI TAOYUAN , TW) observed 0500 UTC 15 October 2018
Temperature: 26.0°C (79°F)
Dewpoint: 24.0°C (75°F) [RH = 89%]
Pressure (altimeter): 29.91 inches Hg (1013.0 mb)
Winds: from the NNE (30 degrees) at 18 MPH (16 knots; 8.2 m/s)
Visibility: 6 or more miles (10+ km)
Ceiling: 3000 feet AGL
Clouds: few clouds at 600 feet AGL
scattered clouds at 1000 feet AGL
broken clouds at 3000 feet AGL
Weather: no significant weather observed at this time

METAR text: RCTP 150430Z 03015KT 360V060 9999 FEW006 SCT010 BKN030 27/24 Q1013 NOSIG RMK A2994
Conditions at: RCTP (TAIPEI TAOYUAN , TW) observed 0430 UTC 15 October 2018
Temperature: 27.0°C (81°F)
Dewpoint: 24.0°C (75°F) [RH = 84%]
Pressure (altimeter): 29.91 inches Hg (1013.0 mb)
Winds: from the NNE (30 degrees) at 17 MPH (15 knots; 7.7 m/s)
Visibility: 6 or more miles (10+ km)
Ceiling: 3000 feet AGL
Clouds: few clouds at 600 feet AGL
scattered clouds at 1000 feet AGL
broken clouds at 3000 feet AGL
Weather: no significant weather observed at this time

METAR text: RCTP 150400Z 03013KT 9999 FEW006 SCT010 BKN030 28/24 Q1013 NOSIG RMK A2994
Conditions at: RCTP (TAIPEI TAOYUAN , TW) observed 0400 UTC 15 October 2018
Temperature: 28.0°C (82°F)
Dewpoint: 24.0°C (75°F) [RH = 79%]
Pressure (altimeter): 29.91 inches Hg (1013.0 mb)
Winds: from the NNE (30 degrees) at 15 MPH (13 knots; 6.7 m/s)
Visibility: 6 or more miles (10+ km)
Ceiling: 3000 feet AGL
Clouds: few clouds at 600 feet AGL
scattered clouds at 1000 feet AGL
broken clouds at 3000 feet AGL
Weather: no significant weather observed at this time

METAR text: RCTP 150330Z 04014KT 9999 FEW006 BKN010 BKN030 27/24 Q1014 NOSIG RMK A2996
Conditions at: RCTP (TAIPEI TAOYUAN , TW) observed 0330 UTC 15 October 2018
Temperature: 27.0°C (81°F)
Dewpoint: 24.0°C (75°F) [RH = 84%]
Pressure (altimeter): 29.94 inches Hg (1014.0 mb)
Winds: from the NE (40 degrees) at 16 MPH (14 knots; 7.2 m/s)
Visibility: 6 or more miles (10+ km)
Ceiling: 1000 feet AGL
Clouds: few clouds at 600 feet AGL
broken clouds at 1000 feet AGL
broken clouds at 3000 feet AGL
Weather: no significant weather observed at this time

METAR text: RCTP 150300Z 05013KT 9999 FEW006 BKN010 BKN030 25/24 Q1015 NOSIG RMK A2998
Conditions at: RCTP (TAIPEI TAOYUAN , TW) observed 0300 UTC 15 October 2018
Temperature: 25.0°C (77°F)
Dewpoint: 24.0°C (75°F) [RH = 94%]
Pressure (altimeter): 29.97 inches Hg (1015.0 mb)
Winds: from the NE (50 degrees) at 15 MPH (13 knots; 6.7 m/s)
Visibility: 6 or more miles (10+ km)
Ceiling: 1000 feet AGL
Clouds: few clouds at 600 feet AGL
broken clouds at 1000 feet AGL
broken clouds at 3000 feet AGL
Weather: no significant weather observed at this time

METAR text: RCTP 150230Z 04013KT 9999 SCT006 BKN010 BKN020 25/23 Q1015 NOSIG RMK A2999
Conditions at: RCTP (TAIPEI TAOYUAN , TW) observed 0230 UTC 15 October 2018
Temperature: 25.0°C (77°F)
Dewpoint: 23.0°C (73°F) [RH = 89%]
Pressure (altimeter): 29.97 inches Hg (1015.0 mb)
Winds: from the NE (40 degrees) at 15 MPH (13 knots; 6.7 m/s)
Visibility: 6 or more miles (10+ km)
Ceiling: 1000 feet AGL
Clouds: scattered clouds at 600 feet AGL
broken clouds at 1000 feet AGL
broken clouds at 2000 feet AGL
Weather: no significant weather observed at this time

METAR text: RCTP 150200Z 03012KT 9999 -RA SCT006 BKN010 BKN020 24/23 Q1015 NOSIG RMK A3000 RA AMT 0.4MM
Conditions at: RCTP (TAIPEI TAOYUAN , TW) observed 0200 UTC 15 October 2018
Temperature: 24.0°C (75°F)
Dewpoint: 23.0°C (73°F) [RH = 94%]
Pressure (altimeter): 29.97 inches Hg (1015.0 mb)
Winds: from the NNE (30 degrees) at 14 MPH (12 knots; 6.2 m/s)
Visibility: 6 or more miles (10+ km)
Ceiling: 1000 feet AGL
Clouds: scattered clouds at 600 feet AGL
broken clouds at 1000 feet AGL
broken clouds at 2000 feet AGL
Weather: -RA  (light rain)

METAR text: RCTP 150130Z 03013KT 8000 -RA SCT005 BKN008 BKN020 24/23 Q1015 NOSIG RMK A3000
Conditions at: RCTP (TAIPEI TAOYUAN , TW) observed 0130 UTC 15 October 2018
Temperature: 24.0°C (75°F)
Dewpoint: 23.0°C (73°F) [RH = 94%]
Pressure (altimeter): 29.97 inches Hg (1015.0 mb)
Winds: from the NNE (30 degrees) at 15 MPH (13 knots; 6.7 m/s)
Visibility: 5 miles ( 8 km)
Ceiling: 800 feet AGL
Clouds: scattered clouds at 500 feet AGL
broken clouds at 800 feet AGL
broken clouds at 2000 feet AGL
Weather: -RA  (light rain)

METAR text: RCTP 150100Z 03010KT 9999 -RA SCT005 BKN008 BKN020 24/23 Q1016 RERA NOSIG RMK A3001 RA AMT 0.2MM
Conditions at: RCTP (TAIPEI TAOYUAN , TW) observed 0100 UTC 15 October 2018
Temperature: 24.0°C (75°F)
Dewpoint: 23.0°C (73°F) [RH = 94%]
Pressure (altimeter): 30.00 inches Hg (1016.0 mb)
Winds: from the NNE (30 degrees) at 12 MPH (10 knots; 5.1 m/s)
Visibility: 6 or more miles (10+ km)
Ceiling: 800 feet AGL
Clouds: scattered clouds at 500 feet AGL
broken clouds at 800 feet AGL
broken clouds at 2000 feet AGL
Weather: -RA  (light rain)

METAR text: RCTP 150048Z 03010KT 9000 RA SCT005 BKN008 BKN020 24/23 Q1016 NOSIG RMK A3001
Conditions at: RCTP (TAIPEI TAOYUAN , TW) observed 0048 UTC 15 October 2018
Temperature: 24.0°C (75°F)
Dewpoint: 23.0°C (73°F) [RH = 94%]
Pressure (altimeter): 30.00 inches Hg (1016.0 mb)
Winds: from the NNE (30 degrees) at 12 MPH (10 knots; 5.1 m/s)
Visibility: 6 miles ( 9 km)
Ceiling: 800 feet AGL
Clouds: scattered clouds at 500 feet AGL
broken clouds at 800 feet AGL
broken clouds at 2000 feet AGL
Weather: RA  (moderate rain)

METAR text: RCTP 150030Z 02011KT 9999 -DZ SCT005 BKN008 BKN020 24/23 Q1016 NOSIG RMK A3001
Conditions at: RCTP (TAIPEI TAOYUAN , TW) observed 0030 UTC 15 October 2018
Temperature: 24.0°C (75°F)
Dewpoint: 23.0°C (73°F) [RH = 94%]
Pressure (altimeter): 30.00 inches Hg (1016.0 mb)
Winds: from the NNE (20 degrees) at 13 MPH (11 knots; 5.7 m/s)
Visibility: 6 or more miles (10+ km)
Ceiling: 800 feet AGL
Clouds: scattered clouds at 500 feet AGL
broken clouds at 800 feet AGL
broken clouds at 2000 feet AGL
Weather: -DZ  (light drizzle)

METAR text: RCTP 150000Z 02011KT 8000 -RA SCT005 BKN008 BKN020 23/22 Q1016 NOSIG RMK A3001
Conditions at: RCTP (TAIPEI TAOYUAN , TW) observed 0000 UTC 15 October 2018
Temperature: 23.0°C (73°F)
Dewpoint: 22.0°C (72°F) [RH = 94%]
Pressure (altimeter): 30.00 inches Hg (1016.0 mb)
Winds: from the NNE (20 degrees) at 13 MPH (11 knots; 5.7 m/s)
Visibility: 5 miles ( 8 km)
Ceiling: 800 feet AGL
Clouds: scattered clouds at 500 feet AGL
broken clouds at 800 feet AGL
broken clouds at 2000 feet AGL
Weather: -RA  (light rain)

METAR text: RCTP 142330Z 03010KT 6000 -RA SCT005 BKN008 BKN020 24/22 Q1015 NOSIG RMK A3000
Conditions at: RCTP (TAIPEI TAOYUAN , TW) observed 2330 UTC 14 October 2018
Temperature: 24.0°C (75°F)
Dewpoint: 22.0°C (72°F) [RH = 89%]
Pressure (altimeter): 29.97 inches Hg (1015.0 mb)
Winds: from the NNE (30 degrees) at 12 MPH (10 knots; 5.1 m/s)
Visibility: 4 miles ( 6 km)
Ceiling: 800 feet AGL
Clouds: scattered clouds at 500 feet AGL
broken clouds at 800 feet AGL
broken clouds at 2000 feet AGL
Weather: -RA  (light rain)

METAR text: RCTP 142300Z 03012KT 9999 -RA SCT006 BKN010 BKN020 24/22 Q1015 NOSIG RMK A3000
Conditions at: RCTP (TAIPEI TAOYUAN , TW) observed 2300 UTC 14 October 2018
Temperature: 24.0°C (75°F)
Dewpoint: 22.0°C (72°F) [RH = 89%]
Pressure (altimeter): 29.97 inches Hg (1015.0 mb)
Winds: from the NNE (30 degrees) at 14 MPH (12 knots; 6.2 m/s)
Visibility: 6 or more miles (10+ km)
Ceiling: 1000 feet AGL
Clouds: scattered clouds at 600 feet AGL
broken clouds at 1000 feet AGL
broken clouds at 2000 feet AGL
Weather: -RA  (light rain)

METAR text: RCTP 142230Z 03012KT 8000 -RA SCT006 BKN010 BKN020 23/22 Q1015 NOSIG RMK A2999
Conditions at: RCTP (TAIPEI TAOYUAN , TW) observed 2230 UTC 14 October 2018
Temperature: 23.0°C (73°F)
Dewpoint: 22.0°C (72°F) [RH = 94%]
Pressure (altimeter): 29.97 inches Hg (1015.0 mb)
Winds: from the NNE (30 degrees) at 14 MPH (12 knots; 6.2 m/s)
Visibility: 5 miles ( 8 km)
Ceiling: 1000 feet AGL
Clouds: scattered clouds at 600 feet AGL
broken clouds at 1000 feet AGL
broken clouds at 2000 feet AGL
Weather: -RA  (light rain)

METAR text: RCTP 142200Z 03012KT 8000 -RA SCT005 BKN008 BKN020 23/22 Q1015 NOSIG RMK A2999
Conditions at: RCTP (TAIPEI TAOYUAN , TW) observed 2200 UTC 14 October 2018
Temperature: 23.0°C (73°F)
Dewpoint: 22.0°C (72°F) [RH = 94%]
Pressure (altimeter): 29.97 inches Hg (1015.0 mb)
Winds: from the NNE (30 degrees) at 14 MPH (12 knots; 6.2 m/s)
Visibility: 5 miles ( 8 km)
Ceiling: 800 feet AGL
Clouds: scattered clouds at 500 feet AGL
broken clouds at 800 feet AGL
broken clouds at 2000 feet AGL
Weather: -RA  (light rain)

METAR text: RCTP 142152Z 03012KT 8000 -RA SCT005 BKN008 BKN020 23/22 Q1015 NOSIG RMK A2998
Conditions at: RCTP (TAIPEI TAOYUAN , TW) observed 2152 UTC 14 October 2018
Temperature: 23.0°C (73°F)
Dewpoint: 22.0°C (72°F) [RH = 94%]
Pressure (altimeter): 29.97 inches Hg (1015.0 mb)
Winds: from the NNE (30 degrees) at 14 MPH (12 knots; 6.2 m/s)
Visibility: 5 miles ( 8 km)
Ceiling: 800 feet AGL
Clouds: scattered clouds at 500 feet AGL
broken clouds at 800 feet AGL
broken clouds at 2000 feet AGL
Weather: -RA  (light rain)

METAR text: RCTP 142130Z 03013KT 9999 FEW006 BKN010 BKN020 23/22 Q1015 NOSIG RMK A2998
Conditions at: RCTP (TAIPEI TAOYUAN , TW) observed 2130 UTC 14 October 2018
Temperature: 23.0°C (73°F)
Dewpoint: 22.0°C (72°F) [RH = 94%]
Pressure (altimeter): 29.97 inches Hg (1015.0 mb)
Winds: from the NNE (30 degrees) at 15 MPH (13 knots; 6.7 m/s)
Visibility: 6 or more miles (10+ km)
Ceiling: 1000 feet AGL
Clouds: few clouds at 600 feet AGL
broken clouds at 1000 feet AGL
broken clouds at 2000 feet AGL
Weather: no significant weather observed at this time

METAR text: RCTP 142100Z 04013KT 9999 -DZ SCT005 BKN008 BKN020 23/22 Q1014 NOSIG RMK A2997
Conditions at: RCTP (TAIPEI TAOYUAN , TW) observed 2100 UTC 14 October 2018
Temperature: 23.0°C (73°F)
Dewpoint: 22.0°C (72°F) [RH = 94%]
Pressure (altimeter): 29.94 inches Hg (1014.0 mb)
Winds: from the NE (40 degrees) at 15 MPH (13 knots; 6.7 m/s)
Visibility: 6 or more miles (10+ km)
Ceiling: 800 feet AGL
Clouds: scattered clouds at 500 feet AGL
broken clouds at 800 feet AGL
broken clouds at 2000 feet AGL
Weather: -DZ  (light drizzle)

METAR text: RCTP 142030Z 03012KT 8000 -RA SCT005 BKN008 BKN020 23/22 Q1014 NOSIG RMK A2997
Conditions at: RCTP (TAIPEI TAOYUAN , TW) observed 2030 UTC 14 October 2018
Temperature: 23.0°C (73°F)
Dewpoint: 22.0°C (72°F) [RH = 94%]
Pressure (altimeter): 29.94 inches Hg (1014.0 mb)
Winds: from the NNE (30 degrees) at 14 MPH (12 knots; 6.2 m/s)
Visibility: 5 miles ( 8 km)
Ceiling: 800 feet AGL
Clouds: scattered clouds at 500 feet AGL
broken clouds at 800 feet AGL
broken clouds at 2000 feet AGL
Weather: -RA  (light rain)

METAR text: RCTP 142000Z 04013KT 9999 -RA SCT005 BKN008 BKN020 23/22 Q1014 NOSIG RMK A2996 RA AMT 0.2MM
Conditions at: RCTP (TAIPEI TAOYUAN , TW) observed 2000 UTC 14 October 2018
Temperature: 23.0°C (73°F)
Dewpoint: 22.0°C (72°F) [RH = 94%]
Pressure (altimeter): 29.94 inches Hg (1014.0 mb)
Winds: from the NE (40 degrees) at 15 MPH (13 knots; 6.7 m/s)
Visibility: 6 or more miles (10+ km)
Ceiling: 800 feet AGL
Clouds: scattered clouds at 500 feet AGL
broken clouds at 800 feet AGL
broken clouds at 2000 feet AGL
Weather: -RA  (light rain)

METAR text: RCTP 141930Z 04012KT 9999 -DZ SCT006 BKN010 BKN020 23/22 Q1014 NOSIG RMK A2997
Conditions at: RCTP (TAIPEI TAOYUAN , TW) observed 1930 UTC 14 October 2018
Temperature: 23.0°C (73°F)
Dewpoint: 22.0°C (72°F) [RH = 94%]
Pressure (altimeter): 29.94 inches Hg (1014.0 mb)
Winds: from the NE (40 degrees) at 14 MPH (12 knots; 6.2 m/s)
Visibility: 6 or more miles (10+ km)
Ceiling: 1000 feet AGL
Clouds: scattered clouds at 600 feet AGL
broken clouds at 1000 feet AGL
broken clouds at 2000 feet AGL
Weather: -DZ  (light drizzle)

METAR text: RCTP 141920Z 04012KT 9999 -DZ SCT006 BKN010 BKN020 23/22 Q1014 NOSIG RMK A2997
Conditions at: RCTP (TAIPEI TAOYUAN , TW) observed 1920 UTC 14 October 2018
Temperature: 23.0°C (73°F)
Dewpoint: 22.0°C (72°F) [RH = 94%]
Pressure (altimeter): 29.94 inches Hg (1014.0 mb)
Winds: from the NE (40 degrees) at 14 MPH (12 knots; 6.2 m/s)
Visibility: 6 or more miles (10+ km)
Ceiling: 1000 feet AGL
Clouds: scattered clouds at 600 feet AGL
broken clouds at 1000 feet AGL
broken clouds at 2000 feet AGL
Weather: -DZ  (light drizzle)

METAR text: RCTP 141900Z 04011KT 9999 SCT006 BKN010 BKN020 23/22 Q1015 NOSIG RMK A2998
Conditions at: RCTP (TAIPEI TAOYUAN , TW) observed 1900 UTC 14 October 2018
Temperature: 23.0°C (73°F)
Dewpoint: 22.0°C (72°F) [RH = 94%]
Pressure (altimeter): 29.97 inches Hg (1015.0 mb)
Winds: from the NE (40 degrees) at 13 MPH (11 knots; 5.7 m/s)
Visibility: 6 or more miles (10+ km)
Ceiling: 1000 feet AGL
Clouds: scattered clouds at 600 feet AGL
broken clouds at 1000 feet AGL
broken clouds at 2000 feet AGL
Weather: no significant weather observed at this time

METAR text: RCTP 141830Z 03013KT 9999 SCT006 BKN010 BKN020 23/22 Q1015 NOSIG RMK A2999
Conditions at: RCTP (TAIPEI TAOYUAN , TW) observed 1830 UTC 14 October 2018
Temperature: 23.0°C (73°F)
Dewpoint: 22.0°C (72°F) [RH = 94%]
Pressure (altimeter): 29.97 inches Hg (1015.0 mb)
Winds: from the NNE (30 degrees) at 15 MPH (13 knots; 6.7 m/s)
Visibility: 6 or more miles (10+ km)
Ceiling: 1000 feet AGL
Clouds: scattered clouds at 600 feet AGL
broken clouds at 1000 feet AGL
broken clouds at 2000 feet AGL
Weather: no significant weather observed at this time

METAR text: RCTP 141800Z 03013KT 9999 -DZ FEW006 BKN009 BKN020 23/22 Q1015 NOSIG RMK A2999
Conditions at: RCTP (TAIPEI TAOYUAN , TW) observed 1800 UTC 14 October 2018
Temperature: 23.0°C (73°F)
Dewpoint: 22.0°C (72°F) [RH = 94%]
Pressure (altimeter): 29.97 inches Hg (1015.0 mb)
Winds: from the NNE (30 degrees) at 15 MPH (13 knots; 6.7 m/s)
Visibility: 6 or more miles (10+ km)
Ceiling: 900 feet AGL
Clouds: few clouds at 600 feet AGL
broken clouds at 900 feet AGL
broken clouds at 2000 feet AGL
Weather: -DZ  (light drizzle)

METAR text: RCTP 141730Z 04010KT 9999 -DZ FEW006 BKN009 BKN018 23/22 Q1015 NOSIG RMK A2999
Conditions at: RCTP (TAIPEI TAOYUAN , TW) observed 1730 UTC 14 October 2018
Temperature: 23.0°C (73°F)
Dewpoint: 22.0°C (72°F) [RH = 94%]
Pressure (altimeter): 29.97 inches Hg (1015.0 mb)
Winds: from the NE (40 degrees) at 12 MPH (10 knots; 5.1 m/s)
Visibility: 6 or more miles (10+ km)
Ceiling: 900 feet AGL
Clouds: few clouds at 600 feet AGL
broken clouds at 900 feet AGL
broken clouds at 1800 feet AGL
Weather: -DZ  (light drizzle)

METAR text: RCTP 141718Z 05009KT 9999 -DZ FEW006 BKN009 BKN018 23/22 Q1015 NOSIG RMK A2999
Conditions at: RCTP (TAIPEI TAOYUAN , TW) observed 1718 UTC 14 October 2018
Temperature: 23.0°C (73°F)
Dewpoint: 22.0°C (72°F) [RH = 94%]
Pressure (altimeter): 29.97 inches Hg (1015.0 mb)
Winds: from the NE (50 degrees) at 10 MPH (9 knots; 4.6 m/s)
Visibility: 6 or more miles (10+ km)
Ceiling: 900 feet AGL
Clouds: few clouds at 600 feet AGL
broken clouds at 900 feet AGL
broken clouds at 1800 feet AGL
Weather: -DZ  (light drizzle)

METAR text: RCTP 141700Z 05013KT 9999 FEW006 BKN009 BKN018 24/22 Q1015 NOSIG RMK A3000
Conditions at: RCTP (TAIPEI TAOYUAN , TW) observed 1700 UTC 14 October 2018
Temperature: 24.0°C (75°F)
Dewpoint: 22.0°C (72°F) [RH = 89%]
Pressure (altimeter): 29.97 inches Hg (1015.0 mb)
Winds: from the NE (50 degrees) at 15 MPH (13 knots; 6.7 m/s)
Visibility: 6 or more miles (10+ km)
Ceiling: 900 feet AGL
Clouds: few clouds at 600 feet AGL
broken clouds at 900 feet AGL
broken clouds at 1800 feet AGL
Weather: no significant weather observed at this time

METAR text: RCTP 141630Z 05013KT 9999 FEW006 BKN009 BKN015 24/22 Q1015 NOSIG RMK A3000
Conditions at: RCTP (TAIPEI TAOYUAN , TW) observed 1630 UTC 14 October 2018
Temperature: 24.0°C (75°F)
Dewpoint: 22.0°C (72°F) [RH = 89%]
Pressure (altimeter): 29.97 inches Hg (1015.0 mb)
Winds: from the NE (50 degrees) at 15 MPH (13 knots; 6.7 m/s)
Visibility: 6 or more miles (10+ km)
Ceiling: 900 feet AGL
Clouds: few clouds at 600 feet AGL
broken clouds at 900 feet AGL
broken clouds at 1500 feet AGL
Weather: no significant weather observed at this time

METAR text: RCTP 141600Z 04013KT 9999 FEW006 BKN009 BKN018 24/22 Q1016 NOSIG RMK A3001
Conditions at: RCTP (TAIPEI TAOYUAN , TW) observed 1600 UTC 14 October 2018
Temperature: 24.0°C (75°F)
Dewpoint: 22.0°C (72°F) [RH = 89%]
Pressure (altimeter): 30.00 inches Hg (1016.0 mb)
Winds: from the NE (40 degrees) at 15 MPH (13 knots; 6.7 m/s)
Visibility: 6 or more miles (10+ km)
Ceiling: 900 feet AGL
Clouds: few clouds at 600 feet AGL
broken clouds at 900 feet AGL
broken clouds at 1800 feet AGL
Weather: no significant weather observed at this time

METAR text: RCTP 141530Z 06013KT 9999 FEW006 BKN009 BKN018 24/22 Q1016 NOSIG RMK A3001
Conditions at: RCTP (TAIPEI TAOYUAN , TW) observed 1530 UTC 14 October 2018
Temperature: 24.0°C (75°F)
Dewpoint: 22.0°C (72°F) [RH = 89%]
Pressure (altimeter): 30.00 inches Hg (1016.0 mb)
Winds: from the ENE (60 degrees) at 15 MPH (13 knots; 6.7 m/s)
Visibility: 6 or more miles (10+ km)
Ceiling: 900 feet AGL
Clouds: few clouds at 600 feet AGL
broken clouds at 900 feet AGL
broken clouds at 1800 feet AGL
Weather: no significant weather observed at this time

METAR text: RCTP 141500Z 05010KT 9999 FEW006 BKN009 BKN015 24/22 Q1016 NOSIG RMK A3001
Conditions at: RCTP (TAIPEI TAOYUAN , TW) observed 1500 UTC 14 October 2018
Temperature: 24.0°C (75°F)
Dewpoint: 22.0°C (72°F) [RH = 89%]
Pressure (altimeter): 30.00 inches Hg (1016.0 mb)
Winds: from the NE (50 degrees) at 12 MPH (10 knots; 5.1 m/s)
Visibility: 6 or more miles (10+ km)
Ceiling: 900 feet AGL
Clouds: few clouds at 600 feet AGL
broken clouds at 900 feet AGL
broken clouds at 1500 feet AGL
Weather: no significant weather observed at this time

METAR text: RCTP 141430Z 05013G23KT 9999 FEW006 BKN008 BKN015 23/22 Q1015 NOSIG RMK A3000
Conditions at: RCTP (TAIPEI TAOYUAN , TW) observed 1430 UTC 14 October 2018
Temperature: 23.0°C (73°F)
Dewpoint: 22.0°C (72°F) [RH = 94%]
Pressure (altimeter): 29.97 inches Hg (1015.0 mb)
Winds: from the NE (50 degrees) at 15 MPH (13 knots; 6.7 m/s)
gusting to 26 MPH (23 knots; 11.8 m/s)
Visibility: 6 or more miles (10+ km)
Ceiling: 800 feet AGL
Clouds: few clouds at 600 feet AGL
broken clouds at 800 feet AGL
broken clouds at 1500 feet AGL
Weather: no significant weather observed at this time

METAR text: RCTP 141400Z 04013KT 9999 FEW006 BKN008 BKN015 23/22 Q1016 NOSIG RMK A3001
Conditions at: RCTP (TAIPEI TAOYUAN , TW) observed 1400 UTC 14 October 2018
Temperature: 23.0°C (73°F)
Dewpoint: 22.0°C (72°F) [RH = 94%]
Pressure (altimeter): 30.00 inches Hg (1016.0 mb)
Winds: from the NE (40 degrees) at 15 MPH (13 knots; 6.7 m/s)
Visibility: 6 or more miles (10+ km)
Ceiling: 800 feet AGL
Clouds: few clouds at 600 feet AGL
broken clouds at 800 feet AGL
broken clouds at 1500 feet AGL
Weather: no significant weather observed at this time

METAR text: RCTP 141330Z 04014KT 9999 FEW006 BKN008 BKN015 23/22 Q1016 NOSIG RMK A3001
Conditions at: RCTP (TAIPEI TAOYUAN , TW) observed 1330 UTC 14 October 2018
Temperature: 23.0°C (73°F)
Dewpoint: 22.0°C (72°F) [RH = 94%]
Pressure (altimeter): 30.00 inches Hg (1016.0 mb)
Winds: from the NE (40 degrees) at 16 MPH (14 knots; 7.2 m/s)
Visibility: 6 or more miles (10+ km)
Ceiling: 800 feet AGL
Clouds: few clouds at 600 feet AGL
broken clouds at 800 feet AGL
broken clouds at 1500 feet AGL
Weather: no significant weather observed at this time

METAR text: RCTP 141300Z 04016KT 9999 FEW006 BKN008 BKN015 23/22 Q1016 NOSIG RMK A3001
Conditions at: RCTP (TAIPEI TAOYUAN , TW) observed 1300 UTC 14 October 2018
Temperature: 23.0°C (73°F)
Dewpoint: 22.0°C (72°F) [RH = 94%]
Pressure (altimeter): 30.00 inches Hg (1016.0 mb)
Winds: from the NE (40 degrees) at 18 MPH (16 knots; 8.2 m/s)
Visibility: 6 or more miles (10+ km)
Ceiling: 800 feet AGL
Clouds: few clouds at 600 feet AGL
broken clouds at 800 feet AGL
broken clouds at 1500 feet AGL
Weather: no significant weather observed at this time

METAR text: RCTP 141230Z 04013KT 9999 SCT009 BKN016 BKN100 24/22 Q1016 NOSIG RMK A3001
Conditions at: RCTP (TAIPEI TAOYUAN , TW) observed 1230 UTC 14 October 2018
Temperature: 24.0°C (75°F)
Dewpoint: 22.0°C (72°F) [RH = 89%]
Pressure (altimeter): 30.00 inches Hg (1016.0 mb)
Winds: from the NE (40 degrees) at 15 MPH (13 knots; 6.7 m/s)
Visibility: 6 or more miles (10+ km)
Ceiling: 1600 feet AGL
Clouds: scattered clouds at 900 feet AGL
broken clouds at 1600 feet AGL
broken clouds at 10000 feet AGL
Weather: no significant weather observed at this time

METAR text: RCTP 141200Z 04014KT 9999 FEW012 BKN016 BKN100 24/22 Q1016 NOSIG RMK A3001
Conditions at: RCTP (TAIPEI TAOYUAN , TW) observed 1200 UTC 14 October 2018
Temperature: 24.0°C (75°F)
Dewpoint: 22.0°C (72°F) [RH = 89%]
Pressure (altimeter): 30.00 inches Hg (1016.0 mb)
Winds: from the NE (40 degrees) at 16 MPH (14 knots; 7.2 m/s)
Visibility: 6 or more miles (10+ km)
Ceiling: 1600 feet AGL
Clouds: few clouds at 1200 feet AGL
broken clouds at 1600 feet AGL
broken clouds at 10000 feet AGL
Weather: no significant weather observed at this time

METAR text: RCTP 141130Z 04013KT 9999 FEW012 BKN016 BKN100 24/22 Q1015 NOSIG RMK A3000
Conditions at: RCTP (TAIPEI TAOYUAN , TW) observed 1130 UTC 14 October 2018
Temperature: 24.0°C (75°F)
Dewpoint: 22.0°C (72°F) [RH = 89%]
Pressure (altimeter): 29.97 inches Hg (1015.0 mb)
Winds: from the NE (40 degrees) at 15 MPH (13 knots; 6.7 m/s)
Visibility: 6 or more miles (10+ km)
Ceiling: 1600 feet AGL
Clouds: few clouds at 1200 feet AGL
broken clouds at 1600 feet AGL
broken clouds at 10000 feet AGL
Weather: no significant weather observed at this time

METAR text: RCTP 141100Z 04014KT 9999 FEW012 BKN020 BKN100 24/22 Q1015 NOSIG RMK A2998
Conditions at: RCTP (TAIPEI TAOYUAN , TW) observed 1100 UTC 14 October 2018
Temperature: 24.0°C (75°F)
Dewpoint: 22.0°C (72°F) [RH = 89%]
Pressure (altimeter): 29.97 inches Hg (1015.0 mb)
Winds: from the NE (40 degrees) at 16 MPH (14 knots; 7.2 m/s)
Visibility: 6 or more miles (10+ km)
Ceiling: 2000 feet AGL
Clouds: few clouds at 1200 feet AGL
broken clouds at 2000 feet AGL
broken clouds at 10000 feet AGL
Weather: no significant weather observed at this time

METAR text: RCTP 141030Z 04015KT 9999 FEW012 BKN018 BKN100 24/22 Q1015 NOSIG RMK A2998
Conditions at: RCTP (TAIPEI TAOYUAN , TW) observed 1030 UTC 14 October 2018
Temperature: 24.0°C (75°F)
Dewpoint: 22.0°C (72°F) [RH = 89%]
Pressure (altimeter): 29.97 inches Hg (1015.0 mb)
Winds: from the NE (40 degrees) at 17 MPH (15 knots; 7.7 m/s)
Visibility: 6 or more miles (10+ km)
Ceiling: 1800 feet AGL
Clouds: few clouds at 1200 feet AGL
broken clouds at 1800 feet AGL
broken clouds at 10000 feet AGL
Weather: no significant weather observed at this time

METAR text: RCTP 141000Z 04013KT 9999 FEW015 BKN025 BKN110 24/22 Q1014 NOSIG RMK A2997
Conditions at: RCTP (TAIPEI TAOYUAN , TW) observed 1000 UTC 14 October 2018
Temperature: 24.0°C (75°F)
Dewpoint: 22.0°C (72°F) [RH = 89%]
Pressure (altimeter): 29.94 inches Hg (1014.0 mb)
Winds: from the NE (40 degrees) at 15 MPH (13 knots; 6.7 m/s)
Visibility: 6 or more miles (10+ km)
Ceiling: 2500 feet AGL
Clouds: few clouds at 1500 feet AGL
broken clouds at 2500 feet AGL
broken clouds at 11000 feet AGL
Weather: no significant weather observed at this time

METAR text: RCTP 140930Z 04014KT 9999 FEW015 BKN025 BKN100 24/22 Q1014 NOSIG RMK A2996
Conditions at: RCTP (TAIPEI TAOYUAN , TW) observed 0930 UTC 14 October 2018
Temperature: 24.0°C (75°F)
Dewpoint: 22.0°C (72°F) [RH = 89%]
Pressure (altimeter): 29.94 inches Hg (1014.0 mb)
Winds: from the NE (40 degrees) at 16 MPH (14 knots; 7.2 m/s)
Visibility: 6 or more miles (10+ km)
Ceiling: 2500 feet AGL
Clouds: few clouds at 1500 feet AGL
broken clouds at 2500 feet AGL
broken clouds at 10000 feet AGL
Weather: no significant weather observed at this time

METAR text: RCTP 140900Z 04014KT 9999 FEW015 BKN025 BKN100 25/22 Q1014 NOSIG RMK A2996
Conditions at: RCTP (TAIPEI TAOYUAN , TW) observed 0900 UTC 14 October 2018
Temperature: 25.0°C (77°F)
Dewpoint: 22.0°C (72°F) [RH = 83%]
Pressure (altimeter): 29.94 inches Hg (1014.0 mb)
Winds: from the NE (40 degrees) at 16 MPH (14 knots; 7.2 m/s)
Visibility: 6 or more miles (10+ km)
Ceiling: 2500 feet AGL
Clouds: few clouds at 1500 feet AGL
broken clouds at 2500 feet AGL
broken clouds at 10000 feet AGL
Weather: no significant weather observed at this time

METAR text: RCTP 140830Z 04015KT 9999 FEW012 SCT020 BKN120 25/23 Q1014 NOSIG RMK A2995
Conditions at: RCTP (TAIPEI TAOYUAN , TW) observed 0830 UTC 14 October 2018
Temperature: 25.0°C (77°F)
Dewpoint: 23.0°C (73°F) [RH = 89%]
Pressure (altimeter): 29.94 inches Hg (1014.0 mb)
Winds: from the NE (40 degrees) at 17 MPH (15 knots; 7.7 m/s)
Visibility: 6 or more miles (10+ km)
Ceiling: 12000 feet AGL
Clouds: few clouds at 1200 feet AGL
scattered clouds at 2000 feet AGL
broken clouds at 12000 feet AGL
Weather: no significant weather observed at this time

METAR text: RCTP 140800Z 04013KT 9999 FEW020 SCT035 BKN120 26/23 Q1013 NOSIG RMK A2994
Conditions at: RCTP (TAIPEI TAOYUAN , TW) observed 0800 UTC 14 October 2018
Temperature: 26.0°C (79°F)
Dewpoint: 23.0°C (73°F) [RH = 84%]
Pressure (altimeter): 29.91 inches Hg (1013.0 mb)
Winds: from the NE (40 degrees) at 15 MPH (13 knots; 6.7 m/s)
Visibility: 6 or more miles (10+ km)
Ceiling: 12000 feet AGL
Clouds: few clouds at 2000 feet AGL
scattered clouds at 3500 feet AGL
broken clouds at 12000 feet AGL
Weather: no significant weather observed at this time

Forecast for: RCTP (TAIPEI TAOYUAN , TW)
Text: TAF RCTP 151700Z 1518/1624 05005KT 9999 FEW010 BKN032
Forecast period: 1800 UTC 15 October 2018 to 0600 UTC 16 October 2018
Forecast type: FROM: standard forecast or significant change
Winds: from the NE (50 degrees) at 6 MPH (5 knots; 2.6 m/s)
Visibility: 6 or more miles 10+ km)
Ceiling: 3200 feet AGL
Clouds: few clouds at 1000 feet AGL
broken clouds at 3200 feet AGL
Weather: no significant weather forecast for this period
Text: TEMPO 1602/1606 34010KT SCT010 BKN020
Forecast period: 0200 to 0600 UTC 16 October 2018
Forecast type: TEMPORARY: The following changes expected for less than half the time period
Winds: from the NNW (340 degrees) at 12 MPH (10 knots; 5.1 m/s)
Visibility: missing
Ceiling: 2000 feet AGL
Clouds: scattered clouds at 1000 feet AGL
broken clouds at 2000 feet AGL
Weather: no significant weather forecast for this period
Text: BECMG 1606/1608 03013KT FEW008 BKN016 BKN030
Forecast period: 0600 to 1400 UTC 16 October 2018
Forecast type: BECOMING: Conditions expected to become as follows by 0800 UTC 16 October 2018
Winds: from the NNE (30 degrees) at 15 MPH (13 knots; 6.7 m/s)
Visibility: 6 or more miles 10+ km)
Ceiling: 1600 feet AGL
Clouds: few clouds at 800 feet AGL
broken clouds at 1600 feet AGL
broken clouds at 3000 feet AGL
Weather: no significant weather forecast for this period
Text: BECMG 1614/1616 SCT006 BKN011 BKN020
Forecast period: 1400 UTC 16 October 2018 to 0000 UTC 17 October 2018
Forecast type: BECOMING: Conditions expected to become as follows by 1600 UTC 16 October 2018
Winds: from the NNE (30 degrees) at 15 MPH (13 knots; 6.7 m/s)
Visibility: 6 or more miles 10+ km)
Ceiling: 1100 feet AGL
Clouds: scattered clouds at 600 feet AGL
broken clouds at 1100 feet AGL
broken clouds at 2000 feet AGL
Weather: no significant weather forecast for this period
Text: TEMPO 1617/1623 04018KT 4000 RA SCT004 BKN006 BKN012
Forecast period: 1700 to 2300 UTC 16 October 2018
Forecast type: TEMPORARY: The following changes expected for less than half the time period
Winds: from the NE (40 degrees) at 21 MPH (18 knots; 9.3 m/s)
Visibility: 2.49 miles (4.01 km)
Ceiling: 600 feet AGL
Clouds: scattered clouds at 400 feet AGL
broken clouds at 600 feet AGL
broken clouds at 1200 feet AGL
Weather: RA  (moderate rain)